createdAt,value
2022-09-01T00:00:09.090Z,10.96
2022-09-01T00:03:15.051Z,10.97
2022-09-01T00:06:22.971Z,10.99
2022-09-01T00:09:28.926Z,11.00
2022-09-01T00:12:34.894Z,10.94
2022-09-01T00:15:41.572Z,10.96
2022-09-01T00:18:49.751Z,10.97
2022-09-01T00:22:01.223Z,10.99
2022-09-01T00:25:08.381Z,10.98
2022-09-01T00:28:15.576Z,11.01
2022-09-01T00:31:28.206Z,11.02
2022-09-01T00:34:34.172Z,11.05
2022-09-01T00:37:40.157Z,11.12
2022-09-01T00:40:46.008Z,11.17
2022-09-01T00:43:57.562Z,11.17
2022-09-01T00:47:06.968Z,11.19
2022-09-01T00:50:13.337Z,11.22
2022-09-01T00:53:19.519Z,11.24
2022-09-01T00:56:26.488Z,11.25
2022-09-01T00:59:32.309Z,11.27
2022-09-01T01:02:40.374Z,11.22
2022-09-01T01:05:48.613Z,11.13
2022-09-01T01:09:01.118Z,11.05
2022-09-01T01:12:07.190Z,11.02
2022-09-01T01:15:13.044Z,11.01
2022-09-01T01:18:23.478Z,10.99
2022-09-01T01:21:46.924Z,10.96
2022-09-01T01:25:05.573Z,10.91
2022-09-01T01:28:11.212Z,10.86
2022-09-01T01:31:20.430Z,10.84
2022-09-01T01:34:27.043Z,10.87
2022-09-01T01:37:33.039Z,10.93
2022-09-01T01:40:39.154Z,10.97
2022-09-01T01:43:45.811Z,10.96
2022-09-01T01:46:52.059Z,11.00
2022-09-01T01:49:59.357Z,11.02
2022-09-01T01:53:11.433Z,11.06
2022-09-01T01:56:18.769Z,11.08
2022-09-01T01:59:24.912Z,11.13
2022-09-01T02:02:31.942Z,11.12
2022-09-01T02:05:39.123Z,11.13
2022-09-01T02:08:46.294Z,11.13
2022-09-01T02:11:54.656Z,11.13
2022-09-01T02:15:01.165Z,11.14
2022-09-01T02:18:07.645Z,11.14
2022-09-01T02:21:19.341Z,11.15
2022-09-01T02:24:28.065Z,11.10
2022-09-01T02:27:37.666Z,11.02
2022-09-01T02:30:57.740Z,10.87
2022-09-01T02:34:07.480Z,10.79
2022-09-01T02:37:13.918Z,10.79
2022-09-01T02:40:25.094Z,10.75
2022-09-01T02:43:33.309Z,10.68
2022-09-01T02:46:43.472Z,10.67
2022-09-01T02:50:04.035Z,10.68
2022-09-01T02:53:12.519Z,10.74
2022-09-01T02:56:19.278Z,10.81
2022-09-01T02:59:25.138Z,10.89
2022-09-01T03:02:33.546Z,10.93
2022-09-01T03:06:00.655Z,10.96
2022-09-01T03:09:09.069Z,10.97
2022-09-01T03:12:18.722Z,10.99
2022-09-01T03:15:32.521Z,10.99
2022-09-01T03:18:38.680Z,11.02
2022-09-01T03:21:50.561Z,11.02
2022-09-01T03:24:58.048Z,11.02
2022-09-01T03:28:05.303Z,11.01
2022-09-01T03:31:11.156Z,10.96
2022-09-01T03:34:20.965Z,10.92
2022-09-01T03:37:45.415Z,10.93
2022-09-01T03:40:53.957Z,10.96
2022-09-01T03:44:01.215Z,10.98
2022-09-01T03:47:10.882Z,10.99
2022-09-01T03:50:20.602Z,11.00
2022-09-01T03:53:49.911Z,11.01
2022-09-01T03:57:00.694Z,11.00
2022-09-01T04:00:20.690Z,11.00
2022-09-01T04:03:28.783Z,11.01
2022-09-01T04:06:41.649Z,11.00
2022-09-01T04:09:47.505Z,11.02
2022-09-01T04:13:00.613Z,11.01
2022-09-01T04:16:36.195Z,11.03
2022-09-01T04:19:42.538Z,11.05
2022-09-01T04:22:49.888Z,11.10
2022-09-01T04:26:11.091Z,11.13
2022-09-01T04:29:21.175Z,11.18
2022-09-01T04:32:28.396Z,11.21
2022-09-01T04:35:38.045Z,11.19
2022-09-01T04:38:44.463Z,11.22
2022-09-01T04:41:53.125Z,11.27
2022-09-01T04:45:01.927Z,11.38
2022-09-01T04:48:16.720Z,11.51
2022-09-01T04:51:28.287Z,11.62
2022-09-01T04:54:37.336Z,11.73
2022-09-01T04:57:48.190Z,11.83
2022-09-01T05:01:04.732Z,11.94
2022-09-01T05:04:12.926Z,12.03
2022-09-01T05:07:19.375Z,12.07
2022-09-01T05:10:30.314Z,12.07
2022-09-01T05:13:47.970Z,12.09
2022-09-01T05:16:55.798Z,12.13
2022-09-01T05:20:05.485Z,12.21
2022-09-01T05:26:34.216Z,12.38
2022-09-01T05:29:41.602Z,12.55
2022-09-01T05:32:49.459Z,12.65
2022-09-01T05:36:02.534Z,12.77
2022-09-01T05:39:10.002Z,12.80
2022-09-01T05:42:23.361Z,12.90
2022-09-01T05:45:44.769Z,12.99
2022-09-01T05:49:05.341Z,13.02
2022-09-01T05:52:12.178Z,13.14
2022-09-01T05:55:19.728Z,13.19
2022-09-01T05:58:26.847Z,13.27
2022-09-01T06:01:38.696Z,13.30
2022-09-01T06:04:47.989Z,13.29
2022-09-01T06:07:57.543Z,13.38
2022-09-01T06:11:13.111Z,13.45
2022-09-01T06:14:20.042Z,13.50
2022-09-01T06:17:26.265Z,13.55
2022-09-01T06:20:35.518Z,13.60
2022-09-01T06:23:49.803Z,13.65
2022-09-01T06:26:56.843Z,13.67
2022-09-01T06:30:05.113Z,13.77
2022-09-01T06:33:13.915Z,13.89
2022-09-01T06:36:23.114Z,13.93
2022-09-01T06:39:29.128Z,14.01
2022-09-01T06:42:36.048Z,14.07
2022-09-01T06:45:42.601Z,14.12
2022-09-01T06:48:48.992Z,14.21
2022-09-01T06:51:55.740Z,14.22
2022-09-01T06:55:07.121Z,14.25
2022-09-01T06:58:15.832Z,14.32
2022-09-01T07:01:30.845Z,14.36
2022-09-01T07:04:40.326Z,14.44
2022-09-01T07:08:05.392Z,14.47
2022-09-01T07:11:19.798Z,14.57
2022-09-01T07:14:27.283Z,14.65
2022-09-01T07:17:42.354Z,14.75
2022-09-01T07:21:35.688Z,14.79
2022-09-01T07:24:19.914Z,14.85
2022-09-01T07:27:36.077Z,14.97
2022-09-01T07:30:48.632Z,15.03
2022-09-01T07:44:19.753Z,15.35
2022-09-01T07:54:19.682Z,15.51
2022-09-01T07:57:25.526Z,15.51
2022-09-01T08:00:32.247Z,15.56
2022-09-01T08:03:38.613Z,15.63
2022-09-01T08:06:46.040Z,15.69
2022-09-01T08:09:55.948Z,15.75
2022-09-01T08:13:07.479Z,15.81
2022-09-01T08:16:17.904Z,15.92
2022-09-01T08:19:24.793Z,16.01
2022-09-01T08:22:37.857Z,16.04
2022-09-01T08:25:46.029Z,16.15
2022-09-01T08:28:55.466Z,16.26
2022-09-01T08:32:05.623Z,16.37
2022-09-01T08:35:12.450Z,16.46
2022-09-01T08:38:21.249Z,16.48
2022-09-01T08:41:28.622Z,16.40
2022-09-01T08:44:38.600Z,16.39
2022-09-01T08:48:15.284Z,16.48
2022-09-01T08:51:18.601Z,16.52
2022-09-01T08:54:29.927Z,16.47
2022-09-01T08:57:40.245Z,16.56
2022-09-01T09:00:50.492Z,16.66
2022-09-01T09:04:00.167Z,16.76
2022-09-01T09:07:08.923Z,16.78
2022-09-01T09:10:17.072Z,16.85
2022-09-01T09:13:23.005Z,16.83
2022-09-01T09:16:51.586Z,16.98
2022-09-01T09:20:03.511Z,17.16
2022-09-01T09:23:10.580Z,17.28
2022-09-01T09:26:22.220Z,17.39
2022-09-01T09:29:29.921Z,17.44
2022-09-01T09:33:06.562Z,17.32
2022-09-01T09:36:03.015Z,17.12
2022-09-01T09:39:11.787Z,17.18
2022-09-01T09:42:17.343Z,17.03
2022-09-01T09:45:25.275Z,17.07
2022-09-01T09:48:38.298Z,17.16
2022-09-01T09:51:52.067Z,17.23
2022-09-01T09:54:58.727Z,17.23
2022-09-01T09:58:12.622Z,17.32
2022-09-01T10:01:24.520Z,17.43
2022-09-01T10:04:31.393Z,17.58
2022-09-01T10:07:39.907Z,17.42
2022-09-01T10:10:57.293Z,17.38
2022-09-01T10:14:22.925Z,17.50
2022-09-01T10:17:43.683Z,17.63
2022-09-01T10:20:50.197Z,17.52
2022-09-01T10:24:17.000Z,17.51
2022-09-01T10:27:30.558Z,17.55
2022-09-01T10:30:37.697Z,17.74
2022-09-01T10:33:45.970Z,17.85
2022-09-01T10:37:10.221Z,17.97
2022-09-01T10:40:21.599Z,18.04
2022-09-01T10:43:38.014Z,18.12
2022-09-01T10:46:50.479Z,18.20
2022-09-01T10:49:57.377Z,18.21
2022-09-01T10:53:05.362Z,18.37
2022-09-01T10:56:23.409Z,18.50
2022-09-01T10:59:38.974Z,18.74
2022-09-01T11:02:50.012Z,18.84
2022-09-01T11:06:10.991Z,18.80
2022-09-01T11:09:21.303Z,18.66
2022-09-01T11:12:31.438Z,18.61
2022-09-01T11:15:37.494Z,18.76
2022-09-01T11:18:43.378Z,18.69
2022-09-01T11:21:49.223Z,18.70
2022-09-01T11:25:02.533Z,18.61
2022-09-01T11:28:19.860Z,18.72
2022-09-01T11:31:26.167Z,18.82
2022-09-01T11:34:31.946Z,18.93
2022-09-01T11:37:38.088Z,19.10
2022-09-01T11:40:48.531Z,19.04
2022-09-01T11:43:55.042Z,19.18
2022-09-01T11:47:01.556Z,19.41
2022-09-01T11:50:09.242Z,19.57
2022-09-01T11:53:21.283Z,19.61
2022-09-01T11:56:27.565Z,19.34
2022-09-01T11:59:34.227Z,19.14
2022-09-01T12:02:43.967Z,19.11
2022-09-01T12:05:50.781Z,19.23
2022-09-01T12:08:56.437Z,19.48
2022-09-01T12:12:02.984Z,19.88
2022-09-01T12:15:10.774Z,20.09
2022-09-01T12:18:22.231Z,20.25
2022-09-01T12:21:27.977Z,20.28
2022-09-01T12:24:50.351Z,20.12
2022-09-01T12:27:56.640Z,20.01
2022-09-01T12:31:07.673Z,19.90
2022-09-01T12:34:13.827Z,19.66
2022-09-01T12:37:24.876Z,19.37
2022-09-01T12:40:34.643Z,19.21
2022-09-01T12:43:45.549Z,19.05
2022-09-01T12:46:51.600Z,18.84
2022-09-01T12:49:58.848Z,18.76
2022-09-01T12:53:05.860Z,18.64
2022-09-01T12:56:15.032Z,18.38
2022-09-01T12:59:25.238Z,18.39
2022-09-01T13:02:43.152Z,18.51
2022-09-01T13:05:51.086Z,18.63
2022-09-01T13:08:59.289Z,18.90
2022-09-01T13:12:08.012Z,19.21
2022-09-01T13:21:46.090Z,20.28
2022-09-01T13:24:53.933Z,20.46
2022-09-01T13:28:12.278Z,20.55
2022-09-01T13:34:55.378Z,20.19
2022-09-01T13:38:01.828Z,19.93
2022-09-01T13:41:08.005Z,19.74
2022-09-01T13:44:17.356Z,19.58
2022-09-01T13:47:30.415Z,19.68
2022-09-01T13:54:09.676Z,19.75
2022-09-01T13:57:20.635Z,19.86
2022-09-01T14:00:30.533Z,19.83
2022-09-01T14:03:37.281Z,19.83
2022-09-01T14:06:48.569Z,19.54
2022-09-01T14:09:58.372Z,19.41
2022-09-01T14:13:28.757Z,19.44
2022-09-01T14:16:36.539Z,19.15
2022-09-01T14:19:42.613Z,18.94
2022-09-01T14:22:50.370Z,18.99
2022-09-01T14:25:57.780Z,18.90
2022-09-01T14:32:37.092Z,18.85
2022-09-01T14:35:44.114Z,18.93
2022-09-01T14:38:50.971Z,19.06
2022-09-01T14:42:08.590Z,19.27
2022-09-01T14:45:29.059Z,19.35
2022-09-01T14:48:35.769Z,19.26
2022-09-01T14:55:07.827Z,19.01
2022-09-01T14:58:14.696Z,18.84
2022-09-01T15:01:34.216Z,18.58
2022-09-01T15:04:42.619Z,18.35
2022-09-01T15:07:49.237Z,18.28
2022-09-01T15:10:55.797Z,18.21
2022-09-01T15:14:01.328Z,18.16
2022-09-01T15:17:09.256Z,18.20
2022-09-01T15:20:47.741Z,18.20
2022-09-01T15:23:54.471Z,18.25
2022-09-01T15:27:00.097Z,18.28
2022-09-01T15:30:14.676Z,18.27
2022-09-01T15:33:20.707Z,18.32
2022-09-01T15:36:27.417Z,18.41
2022-09-01T15:39:38.386Z,18.42
2022-09-01T15:42:47.183Z,19.37
2022-09-01T15:45:54.564Z,21.26
2022-09-01T15:49:00.635Z,22.89
2022-09-01T15:52:15.314Z,24.09
2022-09-01T15:55:25.972Z,25.16
2022-09-01T15:58:44.466Z,26.20
2022-09-01T16:01:56.855Z,26.42
2022-09-01T16:05:03.134Z,26.19
2022-09-01T16:08:10.502Z,25.46
2022-09-01T16:11:17.882Z,24.15
2022-09-01T16:14:24.528Z,23.03
2022-09-01T16:17:33.400Z,22.18
2022-09-01T16:20:40.063Z,21.36
2022-09-01T16:23:49.293Z,20.79
2022-09-01T16:26:57.152Z,20.24
2022-09-01T16:30:06.287Z,19.81
2022-09-01T16:33:20.803Z,19.34
2022-09-01T16:36:32.012Z,19.11
2022-09-01T16:39:38.631Z,18.92
2022-09-01T16:42:47.904Z,18.70
2022-09-01T16:45:56.053Z,18.53
2022-09-01T16:49:03.204Z,18.60
2022-09-01T16:52:10.068Z,18.50
2022-09-01T16:55:17.321Z,18.62
2022-09-01T16:58:24.912Z,19.44
2022-09-01T17:01:34.783Z,19.69
2022-09-01T17:04:42.147Z,19.51
2022-09-01T17:07:50.460Z,19.26
2022-09-01T17:11:00.457Z,18.98
2022-09-01T17:14:09.449Z,18.71
2022-09-01T17:17:16.631Z,18.51
2022-09-01T17:20:41.729Z,18.40
2022-09-01T17:24:01.074Z,18.24
2022-09-01T17:27:14.098Z,17.98
2022-09-01T17:30:23.020Z,17.82
2022-09-01T17:33:29.902Z,17.71
2022-09-01T17:36:36.219Z,17.60
2022-09-01T17:39:56.866Z,17.45
2022-09-01T17:43:05.615Z,17.34
2022-09-01T17:46:15.372Z,17.20
2022-09-01T17:49:22.522Z,17.02
2022-09-01T17:52:28.708Z,16.87
2022-09-01T17:55:35.741Z,16.78
2022-09-01T17:58:42.423Z,16.66
2022-09-01T18:01:49.724Z,16.50
2022-09-01T18:04:56.648Z,16.37
2022-09-01T18:08:07.415Z,16.27
2022-09-01T18:11:13.685Z,16.13
2022-09-01T18:14:19.493Z,16.01
2022-09-01T18:17:26.015Z,15.90
2022-09-01T18:20:33.011Z,15.78
2022-09-01T18:23:38.945Z,15.68
2022-09-01T18:26:45.194Z,15.59
2022-09-01T18:29:53.976Z,15.50
2022-09-01T18:33:04.784Z,15.41
2022-09-01T18:36:11.628Z,15.33
2022-09-01T18:39:24.171Z,15.27
2022-09-01T18:42:32.550Z,15.23
2022-09-01T18:45:39.992Z,15.18
2022-09-01T18:48:46.270Z,15.12
2022-09-01T18:51:52.323Z,15.07
2022-09-01T18:54:58.446Z,15.07
2022-09-01T18:58:04.911Z,15.03
2022-09-01T19:01:13.794Z,14.99
2022-09-01T19:04:22.906Z,14.95
2022-09-01T19:07:30.468Z,14.92
2022-09-01T19:10:39.509Z,14.91
2022-09-01T19:13:48.391Z,14.90
2022-09-01T19:16:55.835Z,14.88
2022-09-01T19:20:04.836Z,14.87
2022-09-01T19:23:16.285Z,14.82
2022-09-01T19:26:30.979Z,14.77
2022-09-01T19:29:38.148Z,14.74
2022-09-01T19:32:47.203Z,14.71
2022-09-01T19:35:56.701Z,14.68
2022-09-01T19:39:06.912Z,14.63
2022-09-01T19:42:14.105Z,14.59
2022-09-01T19:45:20.882Z,14.52
2022-09-01T19:48:26.738Z,14.45
2022-09-01T19:51:33.159Z,14.38
2022-09-01T19:54:40.345Z,14.33
2022-09-01T19:57:47.173Z,14.27
2022-09-01T20:00:53.698Z,14.22
2022-09-01T20:04:03.827Z,14.19
2022-09-01T20:07:12.135Z,14.16
2022-09-01T20:10:20.269Z,14.11
2022-09-01T20:13:27.308Z,14.07
2022-09-01T20:16:34.162Z,14.05
2022-09-01T20:19:40.797Z,14.02
2022-09-01T20:22:47.303Z,13.96
2022-09-01T20:25:54.914Z,13.89
2022-09-01T20:29:02.287Z,13.83
2022-09-01T20:32:10.480Z,13.77
2022-09-01T20:35:16.687Z,13.69
2022-09-01T20:38:42.278Z,13.61
2022-09-01T20:41:49.645Z,13.50
2022-09-01T20:44:57.503Z,13.42
2022-09-01T20:48:05.363Z,13.33
2022-09-01T20:51:12.088Z,13.25
2022-09-01T20:54:19.490Z,13.15
2022-09-01T20:57:25.343Z,13.06
2022-09-01T21:00:31.750Z,12.98
2022-09-01T21:03:38.732Z,12.87
2022-09-01T21:06:51.692Z,12.77
2022-09-01T21:09:58.970Z,12.67
2022-09-01T21:13:07.632Z,12.55
2022-09-01T21:16:14.648Z,12.46
2022-09-01T21:19:22.156Z,12.38
2022-09-01T21:22:30.265Z,12.29
2022-09-01T21:25:37.458Z,12.19
2022-09-01T21:28:47.648Z,12.09
2022-09-01T21:31:54.679Z,12.00
2022-09-01T21:35:10.161Z,11.89
2022-09-01T21:38:16.889Z,11.79
2022-09-01T21:41:23.364Z,11.71
2022-09-01T21:44:29.803Z,11.64
2022-09-01T21:47:46.516Z,11.57
2022-09-01T21:50:53.079Z,11.51
2022-09-01T21:53:59.315Z,11.43
2022-09-01T21:57:05.819Z,11.39
2022-09-01T22:00:12.560Z,11.31
2022-09-01T22:03:18.519Z,11.24
2022-09-01T22:06:26.430Z,11.21
2022-09-01T22:09:33.835Z,11.16
2022-09-01T22:12:41.695Z,11.11
2022-09-01T22:15:48.230Z,11.05
2022-09-01T22:18:55.312Z,11.01
2022-09-01T22:22:03.827Z,10.95
2022-09-01T22:25:13.809Z,10.91
2022-09-01T22:28:20.567Z,10.87
2022-09-01T22:31:42.515Z,10.82
2022-09-01T22:34:48.125Z,10.82
2022-09-01T22:37:54.922Z,10.82
2022-09-01T22:41:00.824Z,10.84
2022-09-01T22:44:07.771Z,10.87
2022-09-01T22:47:13.780Z,10.91
2022-09-01T22:50:21.333Z,10.93
2022-09-01T22:53:28.010Z,10.97
2022-09-01T22:56:36.223Z,10.99
2022-09-01T22:59:43.079Z,11.02
2022-09-01T23:02:49.536Z,11.02
2022-09-01T23:05:55.636Z,11.00
2022-09-01T23:09:01.799Z,10.96
2022-09-01T23:12:10.864Z,10.93
2022-09-01T23:15:26.072Z,10.89
2022-09-01T23:18:34.875Z,10.84
2022-09-01T23:21:42.637Z,10.79
2022-09-01T23:24:49.264Z,10.75
2022-09-01T23:27:55.740Z,10.70
2022-09-01T23:31:02.087Z,10.69
2022-09-01T23:34:08.386Z,10.69
2022-09-01T23:37:14.729Z,10.69
2022-09-01T23:40:20.571Z,10.69
2022-09-01T23:43:32.497Z,10.71
2022-09-01T23:46:38.730Z,10.71
2022-09-01T23:49:44.898Z,10.70
2022-09-01T23:52:51.645Z,10.71
2022-09-01T23:56:00.564Z,10.71
2022-09-01T23:59:07.491Z,10.68
